createdAt,value
2022-09-13T00:03:34.524Z,99090.59
2022-09-13T00:06:16.152Z,99095.91
2022-09-13T00:08:43.883Z,99092.41
2022-09-13T00:11:30.433Z,99086.41
2022-09-13T00:13:58.464Z,99098.56
2022-09-13T00:16:28.993Z,99096.00
2022-09-13T00:18:56.744Z,99090.78
2022-09-13T00:21:24.274Z,99095.28
2022-09-13T00:23:53.918Z,99098.75
2022-09-13T00:26:24.322Z,99087.34
2022-09-13T00:28:52.888Z,99096.94
2022-09-13T00:31:21.550Z,99086.47
2022-09-13T00:33:48.637Z,99089.09
2022-09-13T00:36:15.595Z,99083.88
2022-09-13T00:38:43.734Z,99087.34
2022-09-13T00:41:17.383Z,99082.97
2022-09-13T00:43:53.325Z,99089.09
2022-09-13T00:46:29.003Z,99082.16
2022-09-13T00:49:02.954Z,99083.09
2022-09-13T00:51:30.403Z,99087.44
2022-09-13T00:54:16.767Z,99089.16
2022-09-13T00:56:48.776Z,99076.97
2022-09-13T00:59:30.404Z,99088.28
2022-09-13T01:01:58.165Z,99083.94
2022-09-13T01:04:27.863Z,99069.19
2022-09-13T01:06:58.453Z,99080.44
2022-09-13T01:09:26.282Z,99077.91
2022-09-13T01:12:04.774Z,99086.66
2022-09-13T01:14:33.017Z,99077.13
2022-09-13T01:17:00.104Z,99073.69
2022-09-13T01:19:27.787Z,99076.28
2022-09-13T01:22:09.845Z,99065.91
2022-09-13T01:24:36.731Z,99075.44
2022-09-13T01:27:24.936Z,99066.69
2022-09-13T01:30:15.574Z,99069.38
2022-09-13T01:32:54.546Z,99069.38
2022-09-13T01:35:36.364Z,99072.03
2022-09-13T01:38:15.591Z,99063.28
2022-09-13T01:40:51.155Z,99064.16
2022-09-13T01:43:44.016Z,99063.31
2022-09-13T01:46:22.074Z,99056.31
2022-09-13T01:49:07.574Z,99062.44
2022-09-13T01:51:46.008Z,99057.19
2022-09-13T01:54:19.165Z,99064.31
2022-09-13T01:57:05.915Z,99063.53
2022-09-13T01:59:57.025Z,99055.75
2022-09-13T02:02:51.605Z,99059.25
2022-09-13T02:05:35.731Z,99061.84
2022-09-13T02:08:13.471Z,99067.94
2022-09-13T02:10:46.408Z,99066.34
2022-09-13T02:13:19.812Z,99062.09
2022-09-13T02:15:50.211Z,99063.03
2022-09-13T02:18:31.106Z,99059.59
2022-09-13T02:21:03.224Z,99062.16
2022-09-13T02:23:38.726Z,99057.00
2022-09-13T02:26:08.151Z,99063.94
2022-09-13T02:28:44.253Z,99057.97
2022-09-13T02:31:14.823Z,99050.97
2022-09-13T02:33:52.249Z,99045.84
2022-09-13T02:36:42.707Z,99050.19
2022-09-13T02:39:24.547Z,99051.00
2022-09-13T02:42:04.760Z,99051.03
2022-09-13T02:44:37.785Z,99052.75
2022-09-13T02:47:17.114Z,99051.84
2022-09-13T02:50:16.384Z,99050.03
2022-09-13T02:53:01.372Z,99056.97
2022-09-13T02:55:41.104Z,99055.22
2022-09-13T02:58:31.175Z,99056.94
2022-09-13T03:00:58.303Z,99057.81
2022-09-13T03:03:25.547Z,99056.91
2022-09-13T03:05:53.964Z,99036.09
2022-09-13T03:08:22.632Z,99057.78
2022-09-13T03:11:08.089Z,99062.16
2022-09-13T03:13:40.549Z,99058.69
2022-09-13T03:16:43.296Z,99053.47
2022-09-13T03:19:25.142Z,99056.91
2022-09-13T03:22:27.942Z,99054.34
2022-09-13T03:25:04.764Z,99058.69
2022-09-13T03:27:34.274Z,99058.69
2022-09-13T03:30:04.109Z,99056.88
2022-09-13T03:32:41.513Z,99049.97
2022-09-13T03:35:44.902Z,99050.81
2022-09-13T03:38:25.236Z,99043.84
2022-09-13T03:41:05.316Z,99044.75
2022-09-13T03:43:36.231Z,99050.78
2022-09-13T03:46:07.289Z,99052.59
2022-09-13T03:48:38.379Z,99054.34
2022-09-13T03:51:06.718Z,99056.06
2022-09-13T03:53:38.107Z,99057.81
2022-09-13T03:56:19.981Z,99056.94
2022-09-13T03:58:48.076Z,99057.81
2022-09-13T04:01:20.883Z,99054.34
2022-09-13T04:03:48.266Z,99056.09
2022-09-13T04:06:15.252Z,99053.47
2022-09-13T04:08:42.595Z,99056.09
2022-09-13T04:11:11.715Z,99056.97
2022-09-13T04:13:38.902Z,99053.47
2022-09-13T04:16:07.489Z,99048.25
2022-09-13T04:18:35.454Z,99050.88
2022-09-13T04:21:03.007Z,99042.16
2022-09-13T04:23:30.539Z,99054.31
2022-09-13T04:26:02.725Z,99050.00
2022-09-13T04:28:29.660Z,99056.09
2022-09-13T04:30:56.491Z,99053.47
2022-09-13T04:33:23.472Z,99058.69
2022-09-13T04:35:55.546Z,99056.94
2022-09-13T04:38:22.591Z,99062.94
2022-09-13T04:40:56.393Z,99077.25
2022-09-13T04:43:24.626Z,99071.91
2022-09-13T04:45:52.163Z,99083.97
2022-09-13T04:48:19.340Z,99085.59
2022-09-13T04:50:46.297Z,99079.25
2022-09-13T04:53:13.391Z,99083.84
2022-09-13T04:55:40.391Z,99090.59
2022-09-13T04:58:07.400Z,99092.94
2022-09-13T05:00:34.714Z,99095.31
2022-09-13T05:03:02.074Z,99092.28
2022-09-13T05:05:29.486Z,99096.34
2022-09-13T05:07:56.415Z,99092.22
2022-09-13T05:10:23.455Z,99100.25
2022-09-13T05:12:50.431Z,99102.50
2022-09-13T05:15:17.254Z,99103.81
2022-09-13T05:17:44.167Z,99107.06
2022-09-13T05:20:11.044Z,99102.19
2022-09-13T05:22:38.304Z,99102.69
2022-09-13T05:25:05.756Z,99113.28
2022-09-13T05:27:32.519Z,99115.47
2022-09-13T05:29:59.293Z,99117.44
2022-09-13T05:32:26.227Z,99111.69
2022-09-13T05:34:53.068Z,99107.72
2022-09-13T05:37:20.023Z,99110.44
2022-09-13T05:40:07.824Z,99117.00
2022-09-13T05:42:34.212Z,99113.84
2022-09-13T05:45:01.442Z,99120.03
2022-09-13T05:47:28.382Z,99110.66
2022-09-13T05:50:09.931Z,99117.59
2022-09-13T05:52:38.154Z,99109.41
2022-09-13T05:55:05.451Z,99114.94
2022-09-13T05:57:32.416Z,99113.97
2022-09-13T05:59:59.344Z,99108.81
2022-09-13T06:02:26.606Z,99109.66
2022-09-13T06:04:53.644Z,99114.03
2022-09-13T06:07:20.607Z,99112.53
2022-09-13T06:09:47.817Z,99111.19
2022-09-13T06:12:16.982Z,99109.50
2022-09-13T06:14:43.941Z,99112.16
2022-09-13T06:17:10.934Z,99111.94
2022-09-13T06:19:38.136Z,99103.56
2022-09-13T06:22:05.148Z,99102.84
2022-09-13T06:24:32.355Z,99102.53
2022-09-13T06:27:00.032Z,99107.44
2022-09-13T06:29:26.997Z,99105.88
2022-09-13T06:31:54.071Z,99109.16
2022-09-13T06:34:20.992Z,99110.44
2022-09-13T06:36:48.075Z,99112.22
2022-09-13T06:39:15.137Z,99113.06
2022-09-13T06:41:42.093Z,99110.38
2022-09-13T06:44:09.689Z,99116.16
2022-09-13T06:46:37.197Z,99111.38
2022-09-13T06:49:06.575Z,99115.50
2022-09-13T06:51:34.995Z,99111.53
2022-09-13T06:54:04.025Z,99113.53
2022-09-13T06:56:33.315Z,99122.97
2022-09-13T06:59:05.343Z,99120.28
2022-09-13T07:01:45.857Z,99132.84
2022-09-13T07:04:15.721Z,99130.75
2022-09-13T07:06:44.977Z,99131.91
2022-09-13T07:09:15.850Z,99128.22
2022-09-13T07:11:43.117Z,99129.16
2022-09-13T07:14:15.260Z,99129.13
2022-09-13T07:16:42.491Z,99130.69
2022-09-13T07:19:29.338Z,99137.41
2022-09-13T07:21:56.991Z,99133.88
2022-09-13T07:24:24.985Z,99134.91
2022-09-13T07:26:52.022Z,99124.72
2022-09-13T07:29:22.841Z,99136.38
2022-09-13T07:31:54.816Z,99138.34
2022-09-13T07:34:23.866Z,99138.09
2022-09-13T07:36:51.104Z,99134.91
2022-09-13T07:39:22.288Z,99138.91
2022-09-13T07:41:50.129Z,99133.06
2022-09-13T07:44:17.199Z,99128.94
2022-09-13T07:46:44.336Z,99138.75
2022-09-13T07:49:14.286Z,99140.25
2022-09-13T07:51:43.341Z,99137.38
2022-09-13T07:54:18.073Z,99140.53
2022-09-13T07:56:45.746Z,99144.25
2022-09-13T07:59:17.504Z,99142.63
2022-09-13T08:01:49.650Z,99141.03
2022-09-13T08:04:24.183Z,99143.78
2022-09-13T08:06:50.947Z,99136.69
2022-09-13T08:09:18.122Z,99144.50
2022-09-13T08:11:50.042Z,99139.16
2022-09-13T08:14:18.635Z,99133.53
2022-09-13T08:16:45.962Z,99125.91
2022-09-13T08:19:15.205Z,99142.00
2022-09-13T08:21:42.916Z,99137.78
2022-09-13T08:24:15.585Z,99130.81
2022-09-13T08:26:42.548Z,99135.19
2022-09-13T08:29:11.038Z,99132.78
2022-09-13T08:31:38.176Z,99127.81
2022-09-13T08:34:05.159Z,99138.59
2022-09-13T08:36:32.178Z,99137.06
2022-09-13T08:39:00.758Z,99135.84
2022-09-13T08:41:44.511Z,99126.47
2022-09-13T08:44:29.794Z,99138.91
2022-09-13T08:47:20.455Z,99130.31
2022-09-13T08:49:50.547Z,99132.38
2022-09-13T08:52:29.991Z,99119.25
2022-09-13T08:54:58.878Z,99115.84
2022-09-13T08:57:38.704Z,99127.91
2022-09-13T09:00:21.012Z,99125.47
2022-09-13T09:03:01.102Z,99129.31
2022-09-13T09:05:31.344Z,99119.19
2022-09-13T09:08:00.461Z,99125.69
2022-09-13T09:10:45.304Z,99125.38
2022-09-13T09:13:28.152Z,99118.94
2022-09-13T09:16:00.085Z,99116.25
2022-09-13T09:18:38.253Z,99115.28
2022-09-13T09:21:10.263Z,99118.19
2022-09-13T09:23:46.198Z,99118.53
2022-09-13T09:26:19.350Z,99106.06
2022-09-13T09:29:12.984Z,99116.19
2022-09-13T09:31:48.663Z,99111.19
2022-09-13T09:34:48.533Z,99100.47
2022-09-13T09:37:25.260Z,99113.25
2022-09-13T09:40:08.087Z,99104.94
2022-09-13T09:42:49.653Z,99109.41
2022-09-13T09:45:33.653Z,99106.97
2022-09-13T09:48:07.673Z,99108.28
2022-09-13T09:50:43.682Z,99096.69
2022-09-13T09:53:24.610Z,99091.09
2022-09-13T09:56:20.053Z,99106.44
2022-09-13T09:58:47.630Z,99094.41
2022-09-13T10:01:35.243Z,99089.53
2022-09-13T10:04:08.715Z,99097.25
2022-09-13T10:06:38.235Z,99088.78
2022-09-13T10:09:20.327Z,99097.81
2022-09-13T10:11:49.504Z,99093.69
2022-09-13T10:14:28.340Z,99092.91
2022-09-13T10:17:21.405Z,99085.69
2022-09-13T10:20:20.291Z,99085.13
2022-09-13T10:23:15.681Z,99091.06
2022-09-13T10:25:47.860Z,99091.88
2022-09-13T10:28:19.646Z,99087.31
2022-09-13T10:30:56.496Z,99091.47
2022-09-13T10:33:40.191Z,99094.19
2022-09-13T10:36:48.155Z,99095.06
2022-09-13T10:39:18.379Z,99079.84
2022-09-13T10:41:50.602Z,99088.63
2022-09-13T10:44:52.573Z,99085.34
2022-09-13T10:47:21.863Z,99087.50
2022-09-13T10:49:53.793Z,99090.88
2022-09-13T10:52:35.825Z,99087.72
2022-09-13T10:55:20.645Z,99083.38
2022-09-13T10:58:07.728Z,99092.59
2022-09-13T11:00:39.313Z,99085.94
2022-09-13T11:03:26.443Z,99086.38
2022-09-13T11:06:11.605Z,99086.81
2022-09-13T11:08:53.260Z,99090.25
2022-09-13T11:11:29.023Z,99085.28
2022-09-13T11:14:19.722Z,99079.94
2022-09-13T11:16:57.362Z,99081.94
2022-09-13T11:19:39.263Z,99076.78
2022-09-13T11:22:33.276Z,99072.47
2022-09-13T11:25:18.058Z,99074.25
2022-09-13T11:28:09.008Z,99081.16
2022-09-13T11:31:20.125Z,99069.16
2022-09-13T11:34:02.821Z,99072.78
2022-09-13T11:37:05.051Z,99071.75
2022-09-13T11:40:14.433Z,99067.16
2022-09-13T11:43:18.741Z,99070.47
2022-09-13T11:45:52.667Z,99065.66
2022-09-13T11:48:32.093Z,99067.06
2022-09-13T11:51:25.395Z,99064.44
2022-09-13T11:54:15.972Z,99066.38
2022-09-13T11:56:48.246Z,99056.78
2022-09-13T11:59:49.510Z,99052.88
2022-09-13T12:02:34.688Z,99057.00
2022-09-13T12:05:22.585Z,99051.34
2022-09-13T12:07:55.650Z,99046.91
2022-09-13T12:10:30.907Z,99051.34
2022-09-13T12:13:01.724Z,99049.19
2022-09-13T12:15:40.835Z,99044.13
2022-09-13T12:36:23.605Z,99009.03
2022-09-13T12:39:20.403Z,99010.47
2022-09-13T12:42:14.964Z,98997.91
2022-09-13T12:45:15.542Z,99007.59
2022-09-13T12:48:20.912Z,98995.63
2022-09-13T12:51:06.445Z,98980.63
2022-09-13T12:57:28.672Z,98989.38
2022-09-13T13:00:35.675Z,98983.34
2022-09-13T13:03:32.606Z,99003.16
2022-09-13T13:06:39.527Z,98969.53
2022-09-13T13:09:54.974Z,98991.28
2022-09-13T13:16:28.450Z,98993.38
2022-09-13T13:19:08.421Z,98961.00
2022-09-13T13:21:46.104Z,98984.44
2022-09-13T13:24:20.140Z,98988.00
2022-09-13T13:26:56.830Z,98981.16
2022-09-13T13:29:32.800Z,98970.69
2022-09-13T13:32:09.547Z,98990.13
2022-09-13T13:34:45.130Z,98991.63
2022-09-13T13:37:12.085Z,98986.31
2022-09-13T13:39:41.661Z,98988.72
2022-09-13T13:42:25.886Z,98992.13
2022-09-13T13:44:52.884Z,98993.44
2022-09-13T13:47:19.767Z,98987.19
2022-09-13T13:50:13.786Z,98989.84
2022-09-13T13:52:52.903Z,98989.69
2022-09-13T13:55:43.684Z,98981.00
2022-09-13T13:58:19.593Z,98985.66
2022-09-13T14:01:24.186Z,98990.78
2022-09-13T14:04:15.534Z,98984.28
2022-09-13T14:06:54.491Z,98986.00
2022-09-13T14:09:33.402Z,98985.88
2022-09-13T14:12:15.934Z,98991.00
2022-09-13T14:14:58.092Z,98984.75
2022-09-13T14:17:49.149Z,98977.56
2022-09-13T14:20:19.823Z,98980.50
2022-09-13T14:22:47.434Z,98981.88
2022-09-13T14:25:25.306Z,98980.84
2022-09-13T14:27:59.255Z,98975.56
2022-09-13T14:37:36.063Z,98938.88
2022-09-13T14:40:17.282Z,98966.13
2022-09-13T14:43:13.692Z,98963.25
2022-09-13T14:45:58.731Z,98956.47
2022-09-13T14:48:43.771Z,98948.19
2022-09-13T14:51:46.324Z,98939.00
2022-09-13T14:54:56.135Z,98935.75
2022-09-13T14:57:44.621Z,98966.31
2022-09-13T15:00:14.345Z,98962.72
2022-09-13T15:02:51.701Z,98955.09
2022-09-13T15:05:22.712Z,98955.97
2022-09-13T15:07:53.232Z,98963.59
2022-09-13T15:10:33.362Z,98970.56
2022-09-13T15:16:37.782Z,98954.34
2022-09-13T15:34:34.472Z,98970.63
2022-09-13T16:36:49.117Z,98941.13
2022-09-13T16:39:15.934Z,98944.06
2022-09-13T16:41:42.815Z,98941.03
2022-09-13T16:44:09.776Z,98939.69
2022-09-13T16:46:37.207Z,98928.66
2022-09-13T16:49:04.849Z,98934.09
2022-09-13T16:51:32.005Z,98938.75
2022-09-13T16:53:59.447Z,98932.84
2022-09-13T16:56:27.583Z,98940.91
2022-09-13T16:58:54.788Z,98941.25
2022-09-13T17:01:24.513Z,98940.56
2022-09-13T17:03:54.785Z,98938.25
2022-09-13T17:06:23.215Z,98942.25
2022-09-13T17:09:01.335Z,98951.38
2022-09-13T17:11:30.349Z,98950.78
2022-09-13T17:13:57.500Z,98946.56
2022-09-13T17:16:31.692Z,98952.13
2022-09-13T17:19:01.220Z,98952.19
2022-09-13T17:21:29.665Z,98953.00
2022-09-13T17:23:56.715Z,98967.41
2022-09-13T17:26:23.627Z,98965.91
2022-09-13T17:28:51.035Z,98973.25
2022-09-13T17:31:18.040Z,98972.66
2022-09-13T17:33:45.424Z,98982.81
2022-09-13T17:36:14.734Z,98980.25
2022-09-13T17:38:42.974Z,98984.00
2022-09-13T17:41:13.335Z,98989.31
2022-09-13T17:43:42.904Z,98986.13
2022-09-13T17:46:22.476Z,98988.94
2022-09-13T17:48:52.376Z,98987.31
2022-09-13T17:51:24.393Z,98991.97
2022-09-13T17:53:54.038Z,99000.06
2022-09-13T17:56:27.263Z,99001.31
2022-09-13T17:58:54.247Z,98999.00
2022-09-13T18:01:21.433Z,99005.94
2022-09-13T18:03:48.564Z,99007.66
2022-09-13T18:06:15.969Z,99009.53
2022-09-13T18:08:43.165Z,99012.25
2022-09-13T18:11:18.375Z,99014.81
2022-09-13T18:13:48.397Z,99012.66
